Time;durP1;ratioP1;P1;durP2;ratioP2;P2;SDS_P1;SDS_P2;PMS_P1;PMS_P2;Temp;Humidity;BMP_temperature;BMP_pressure;BME280_temperature;BME280_humidity;BME280_pressure;Samples;Min_cycle;Max_cycle;Signal;HPM_P1;HPM_P2
2022/07/07 00:01:11;;;;;;;0.90;0.90;;;;;;;;;;5031647;28;20769;-73
2022/07/07 00:03:37;;;;;;;1.37;1.30;;;;;;;;;;5027691;28;20455;-73
2022/07/07 00:06:03;;;;;;;1.00;1.00;;;;;;;;;;5025118;28;20427;-73
2022/07/07 00:08:29;;;;;;;6.63;1.30;;;;;;;;;;5032664;28;20430;-73
2022/07/07 00:10:56;;;;;;;0.90;0.90;;;;;;;;;;5022526;28;20432;-73
2022/07/07 00:13:22;;;;;;;1.10;1.10;;;;;;;;;;5031702;28;20805;-73
2022/07/07 00:15:48;;;;;;;1.17;1.17;;;;;;;;;;5031005;28;20899;-73
2022/07/07 00:18:14;;;;;;;6.63;1.20;;;;;;;;;;5032408;28;20435;-73
2022/07/07 00:20:40;;;;;;;0.97;0.97;;;;;;;;;;5032320;28;20458;-73
2022/07/07 00:23:06;;;;;;;1.30;1.27;;;;;;;;;;5032321;28;20911;-73
2022/07/07 00:25:32;;;;;;;1.10;1.00;;;;;;;;;;5032339;28;20648;-73
2022/07/07 00:27:58;;;;;;;2.30;1.10;;;;;;;;;;5031316;28;20637;-73
2022/07/07 00:30:24;;;;;;;5.17;1.17;;;;;;;;;;5032258;28;20423;-73
2022/07/07 00:32:50;;;;;;;0.67;0.67;;;;;;;;;;5031312;28;20482;-73
2022/07/07 00:35:16;;;;;;;1.13;0.97;;;;;;;;;;5032140;28;20435;-73
2022/07/07 00:37:42;;;;;;;0.80;0.80;;;;;;;;;;5031805;28;20927;-73
2022/07/07 00:40:09;;;;;;;1.03;1.03;;;;;;;;;;5031822;28;20435;-73
2022/07/07 00:42:35;;;;;;;1.60;1.10;;;;;;;;;;5031879;28;20424;-73
2022/07/07 00:45:01;;;;;;;1.40;1.40;;;;;;;;;;5032403;28;20434;-73
2022/07/07 00:47:27;;;;;;;2.20;1.00;;;;;;;;;;5031649;28;20506;-73
2022/07/07 00:49:53;;;;;;;1.73;1.73;;;;;;;;;;5030630;28;20899;-73
2022/07/07 00:52:19;;;;;;;2.53;1.33;;;;;;;;;;5031846;28;20497;-73
2022/07/07 00:54:52;;;;;;;1.13;0.73;;;;;;;;;;5031824;28;20430;-73
2022/07/07 00:57:18;;;;;;;2.80;1.27;;;;;;;;;;5031517;28;20420;-73
2022/07/07 00:59:44;;;;;;;1.50;1.40;;;;;;;;;;5032130;28;20427;-73
2022/07/07 01:02:11;;;;;;;1.40;1.30;;;;;;;;;;5035438;28;20923;-73
2022/07/07 01:04:37;;;;;;;1.43;1.43;;;;;;;;;;5032841;28;20566;-73
2022/07/07 01:07:03;;;;;;;1.23;1.23;;;;;;;;;;5035023;28;20450;-73
2022/07/07 01:09:29;;;;;;;1.13;1.13;;;;;;;;;;5035300;28;20481;-73
2022/07/07 01:11:56;;;;;;;1.20;1.20;;;;;;;;;;5034584;28;20471;-73
2022/07/07 01:14:23;;;;;;;1.10;1.10;;;;;;;;;;5027460;28;20431;-73
2022/07/07 01:16:49;;;;;;;1.27;1.27;;;;;;;;;;5033769;28;20434;-73
2022/07/07 01:19:16;;;;;;;4.63;1.40;;;;;;;;;;5035166;28;20592;-73
2022/07/07 01:21:47;;;;;;;1.10;1.10;;;;;;;;;;5033824;28;21026;-73
2022/07/07 01:24:13;;;;;;;1.40;1.13;;;;;;;;;;5035172;28;20438;-72
2022/07/07 01:26:42;;;;;;;1.20;1.20;;;;;;;;;;5034723;28;20424;-73
2022/07/07 01:29:07;;;;;;;10.03;0.93;;;;;;;;;;5033973;28;20428;-73
2022/07/07 01:31:33;;;;;;;1.80;1.67;;;;;;;;;;5034676;28;20461;-73
2022/07/07 01:33:59;;;;;;;2.57;2.37;;;;;;;;;;5035122;28;20423;-73
2022/07/07 01:36:25;;;;;;;1.80;1.70;;;;;;;;;;5034822;28;20911;-73
2022/07/07 01:38:51;;;;;;;1.20;1.20;;;;;;;;;;5034962;28;20469;-73
2022/07/07 01:41:17;;;;;;;2.67;1.13;;;;;;;;;;5035021;28;20423;-73
2022/07/07 01:43:43;;;;;;;5.10;1.30;;;;;;;;;;5032978;28;20196;-73
2022/07/07 01:46:09;;;;;;;1.33;1.13;;;;;;;;;;5034484;28;20554;-65
2022/07/07 01:48:35;;;;;;;1.20;1.20;;;;;;;;;;5034653;28;20915;-65
2022/07/07 01:51:01;;;;;;;1.40;1.30;;;;;;;;;;5034539;28;20194;-65
2022/07/07 01:53:27;;;;;;;1.50;1.40;;;;;;;;;;5034260;28;20479;-65
2022/07/07 01:55:53;;;;;;;5.07;1.20;;;;;;;;;;5034309;28;20859;-72
2022/07/07 01:58:19;;;;;;;1.97;1.20;;;;;;;;;;5033156;28;20189;-72
2022/07/07 02:00:45;;;;;;;1.30;1.30;;;;;;;;;;5033880;28;20903;-73
2022/07/07 02:03:12;;;;;;;3.27;1.10;;;;;;;;;;5034325;28;20439;-73
2022/07/07 02:05:38;;;;;;;2.23;1.37;;;;;;;;;;5033752;28;20180;-72
2022/07/07 02:08:04;;;;;;;1.00;1.00;;;;;;;;;;5033913;28;20824;-73
2022/07/07 02:13:14;;;;;;;1.10;1.10;;;;;;;;;;5033736;28;20540;-73
2022/07/07 02:15:40;;;;;;;4.70;1.40;;;;;;;;;;5034065;28;20522;-73
2022/07/07 02:18:06;;;;;;;1.07;1.07;;;;;;;;;;5033774;28;20431;-73
2022/07/07 02:20:32;;;;;;;1.10;1.10;;;;;;;;;;5029723;28;20438;-73
2022/07/07 02:22:58;;;;;;;1.90;1.30;;;;;;;;;;5033052;28;20436;-73
2022/07/07 02:25:24;;;;;;;2.50;0.97;;;;;;;;;;5033831;28;20427;-73
2022/07/07 02:27:53;;;;;;;1.30;1.30;;;;;;;;;;5033268;28;20185;-73
2022/07/07 02:30:19;;;;;;;1.50;1.40;;;;;;;;;;5033959;28;20189;-73
2022/07/07 02:32:45;;;;;;;1.10;1.10;;;;;;;;;;5033953;28;20500;-73
2022/07/07 02:35:11;;;;;;;1.27;1.23;;;;;;;;;;5033879;28;20431;-73
2022/07/07 02:37:37;;;;;;;1.90;1.80;;;;;;;;;;5032806;28;20429;-73
2022/07/07 02:40:03;;;;;;;1.63;1.27;;;;;;;;;;5032654;28;20851;-73
2022/07/07 02:42:29;;;;;;;1.23;1.23;;;;;;;;;;5033291;28;20185;-73
2022/07/07 02:44:55;;;;;;;1.17;1.17;;;;;;;;;;5033982;28;20426;-73
2022/07/07 02:47:21;;;;;;;1.03;1.03;;;;;;;;;;5032705;28;20444;-73
2022/07/07 02:49:47;;;;;;;1.30;1.20;;;;;;;;;;5033571;28;20180;-74
2022/07/07 02:52:13;;;;;;;1.40;1.27;;;;;;;;;;5032908;28;20494;-74
2022/07/07 02:54:39;;;;;;;1.10;1.10;;;;;;;;;;5033300;28;20291;-74
2022/07/07 02:57:05;;;;;;;1.37;1.27;;;;;;;;;;5032804;28;20199;-73
2022/07/07 02:59:31;;;;;;;2.40;1.47;;;;;;;;;;5031481;28;20267;-74
2022/07/07 03:01:57;;;;;;;1.40;1.40;;;;;;;;;;5033279;28;20519;-74
2022/07/07 03:04:22;;;;;;;1.10;1.10;;;;;;;;;;5033337;28;20477;-73
2022/07/07 03:06:48;;;;;;;1.17;1.17;;;;;;;;;;5030264;28;20446;-74
2022/07/07 03:09:14;;;;;;;0.90;0.90;;;;;;;;;;5032823;28;20212;-73
2022/07/07 03:11:40;;;;;;;1.17;1.17;;;;;;;;;;5033180;28;20497;-73
2022/07/07 03:14:06;;;;;;;1.13;1.13;;;;;;;;;;5027452;28;20435;-73
2022/07/07 03:16:32;;;;;;;1.10;1.10;;;;;;;;;;5022444;28;20974;-74
2022/07/07 03:18:59;;;;;;;1.30;1.20;;;;;;;;;;5028585;28;20781;-74
2022/07/07 03:21:25;;;;;;;7.20;0.93;;;;;;;;;;5032628;28;20775;-73
2022/07/07 03:23:51;;;;;;;1.00;1.00;;;;;;;;;;5032598;28;20435;-73
2022/07/07 03:26:17;;;;;;;1.57;1.50;;;;;;;;;;5032416;28;20461;-73
2022/07/07 03:28:43;;;;;;;2.67;1.10;;;;;;;;;;5030147;28;20474;-73
2022/07/07 03:31:09;;;;;;;1.80;0.90;;;;;;;;;;5032960;28;20176;-73
2022/07/07 03:33:35;;;;;;;3.53;2.90;;;;;;;;;;5032179;28;20893;-73
2022/07/07 03:36:01;;;;;;;1.77;1.20;;;;;;;;;;5032207;28;20467;-73
2022/07/07 03:38:26;;;;;;;1.10;1.10;;;;;;;;;;5032275;28;20926;-73
2022/07/07 03:40:52;;;;;;;2.10;1.50;;;;;;;;;;5032451;28;20525;-73
2022/07/07 03:43:20;;;;;;;2.70;1.83;;;;;;;;;;5027697;28;20431;-74
2022/07/07 03:45:46;;;;;;;1.27;1.27;;;;;;;;;;5031221;28;20546;-73
2022/07/07 03:48:12;;;;;;;1.43;1.33;;;;;;;;;;5031147;28;20543;-73
2022/07/07 03:50:38;;;;;;;2.30;1.70;;;;;;;;;;5026398;28;20435;-73
2022/07/07 03:53:04;;;;;;;1.90;1.43;;;;;;;;;;5023671;28;20483;-73
2022/07/07 03:55:30;;;;;;;1.93;1.67;;;;;;;;;;5031419;28;20986;-73
2022/07/07 03:57:55;;;;;;;3.03;1.47;;;;;;;;;;5022493;28;20468;-73
2022/07/07 04:00:21;;;;;;;1.60;1.43;;;;;;;;;;5029102;28;20431;-72
2022/07/07 04:02:47;;;;;;;0.90;0.90;;;;;;;;;;5028396;28;20442;-73
2022/07/07 04:05:13;;;;;;;5.87;1.73;;;;;;;;;;5015099;28;20522;-73
2022/07/07 04:07:39;;;;;;;1.20;1.10;;;;;;;;;;5021081;28;20427;-73
2022/07/07 04:10:05;;;;;;;1.50;1.40;;;;;;;;;;5031795;28;20442;-73
2022/07/07 04:12:31;;;;;;;1.20;1.10;;;;;;;;;;5031880;28;20216;-73
2022/07/07 04:14:57;;;;;;;1.27;1.27;;;;;;;;;;5031790;28;20437;-73
2022/07/07 04:17:23;;;;;;;1.10;1.10;;;;;;;;;;5030568;28;20526;-73
2022/07/07 04:19:49;;;;;;;1.10;1.10;;;;;;;;;;5020386;28;20424;-73
2022/07/07 04:22:15;;;;;;;1.17;1.07;;;;;;;;;;5031504;28;20440;-73
2022/07/07 04:24:41;;;;;;;6.83;1.23;;;;;;;;;;5031176;28;20519;-73
2022/07/07 04:27:08;;;;;;;1.30;1.30;;;;;;;;;;5029521;28;20792;-73
2022/07/07 04:29:34;;;;;;;1.03;1.03;;;;;;;;;;5031108;28;20173;-74
2022/07/07 04:32:00;;;;;;;4.93;1.03;;;;;;;;;;5029105;28;20529;-73
2022/07/07 04:34:26;;;;;;;2.97;1.33;;;;;;;;;;5032630;28;20768;-73
2022/07/07 04:36:52;;;;;;;1.40;1.40;;;;;;;;;;5035966;28;20455;-74
2022/07/07 04:39:19;;;;;;;1.30;1.30;;;;;;;;;;5035722;28;20427;-74
2022/07/07 04:41:45;;;;;;;5.63;1.77;;;;;;;;;;5035948;28;20446;-74
2022/07/07 04:44:11;;;;;;;1.90;1.13;;;;;;;;;;5035290;28;20566;-73
2022/07/07 04:46:37;;;;;;;4.87;1.40;;;;;;;;;;5035664;28;20480;-73
2022/07/07 04:49:02;;;;;;;4.30;1.30;;;;;;;;;;5036146;28;20415;-73
2022/07/07 04:51:29;;;;;;;1.37;1.37;;;;;;;;;;5035265;28;20486;-74
2022/07/07 04:53:55;;;;;;;3.13;1.20;;;;;;;;;;5034271;28;20850;-74
2022/07/07 04:56:21;;;;;;;1.17;1.17;;;;;;;;;;5035254;28;20431;-75
2022/07/07 04:58:46;;;;;;;3.93;1.20;;;;;;;;;;5035199;28;20446;-74
2022/07/07 05:01:13;;;;;;;3.93;2.57;;;;;;;;;;5034709;28;20508;-74
2022/07/07 05:03:38;;;;;;;1.20;1.20;;;;;;;;;;5035027;28;20435;-73
2022/07/07 05:06:05;;;;;;;2.20;2.10;;;;;;;;;;5028841;28;20451;-74
2022/07/07 05:08:31;;;;;;;2.30;1.43;;;;;;;;;;5025938;28;21010;-73
2022/07/07 05:10:57;;;;;;;1.40;1.30;;;;;;;;;;5035421;28;20437;-75
2022/07/07 05:13:23;;;;;;;5.13;1.30;;;;;;;;;;5034766;28;20962;-73
2022/07/07 05:15:49;;;;;;;1.23;1.23;;;;;;;;;;5034814;28;20442;-73
2022/07/07 05:18:16;;;;;;;1.63;1.60;;;;;;;;;;5035248;28;20435;-75
2022/07/07 05:20:42;;;;;;;3.90;1.60;;;;;;;;;;5035243;28;20477;-74
2022/07/07 05:23:08;;;;;;;1.77;1.60;;;;;;;;;;5033490;28;20474;-74
2022/07/07 05:25:34;;;;;;;1.70;1.40;;;;;;;;;;5034341;28;20833;-74
2022/07/07 05:28:00;;;;;;;1.90;1.57;;;;;;;;;;5033583;28;20524;-74
2022/07/07 05:30:26;;;;;;;2.97;1.70;;;;;;;;;;5034854;28;20435;-74
2022/07/07 05:32:51;;;;;;;3.53;1.60;;;;;;;;;;5033769;28;20489;-75
2022/07/07 05:35:17;;;;;;;2.63;1.80;;;;;;;;;;5033545;28;20431;-74
2022/07/07 05:37:43;;;;;;;2.53;2.43;;;;;;;;;;5034022;28;20449;-76
2022/07/07 05:40:10;;;;;;;5.03;1.50;;;;;;;;;;5034849;28;20437;-76
2022/07/07 05:42:36;;;;;;;2.63;2.43;;;;;;;;;;5037994;28;20519;-75
2022/07/07 05:45:03;;;;;;;3.13;1.60;;;;;;;;;;5032815;28;20435;-77
2022/07/07 05:47:29;;;;;;;4.63;1.77;;;;;;;;;;5032966;28;20430;-74
2022/07/07 05:49:55;;;;;;;7.60;2.40;;;;;;;;;;5025367;28;20431;-73
2022/07/07 05:52:21;;;;;;;2.40;1.60;;;;;;;;;;5033005;28;20590;-74
2022/07/07 05:54:47;;;;;;;3.30;1.57;;;;;;;;;;5034606;28;20485;-75
2022/07/07 05:57:14;;;;;;;2.00;1.83;;;;;;;;;;5033507;28;20896;-74
2022/07/07 05:59:40;;;;;;;1.87;1.73;;;;;;;;;;5034581;28;20625;-74
2022/07/07 06:02:06;;;;;;;5.37;2.00;;;;;;;;;;5033973;28;20431;-74
2022/07/07 06:04:32;;;;;;;3.20;2.00;;;;;;;;;;5041000;28;20438;-76
2022/07/07 06:06:58;;;;;;;1.40;1.40;;;;;;;;;;5034530;28;20511;-73
2022/07/07 06:09:24;;;;;;;1.50;1.50;;;;;;;;;;5033070;28;20215;-73
2022/07/07 06:11:50;;;;;;;1.30;1.20;;;;;;;;;;5033268;28;21004;-74
2022/07/07 06:14:16;;;;;;;2.40;1.43;;;;;;;;;;5032733;28;20947;-73
2022/07/07 06:16:42;;;;;;;3.27;1.30;;;;;;;;;;5032485;28;20432;-74
2022/07/07 06:19:09;;;;;;;1.20;1.10;;;;;;;;;;5033771;28;20777;-72
2022/07/07 06:21:36;;;;;;;1.40;1.40;;;;;;;;;;5033792;28;20220;-72
2022/07/07 06:24:02;;;;;;;1.83;1.73;;;;;;;;;;5033582;28;20916;-73
2022/07/07 06:26:28;;;;;;;4.93;2.03;;;;;;;;;;5035416;28;20434;-73
2022/07/07 06:28:54;;;;;;;1.37;1.30;;;;;;;;;;5031976;28;20435;-73
2022/07/07 06:31:20;;;;;;;2.77;2.50;;;;;;;;;;5037989;28;20426;-73
2022/07/07 06:33:46;;;;;;;1.53;1.43;;;;;;;;;;5033548;28;20857;-73
2022/07/07 06:36:12;;;;;;;1.20;1.07;;;;;;;;;;5033401;28;20923;-73
2022/07/07 06:38:38;;;;;;;1.20;1.20;;;;;;;;;;5033216;28;20291;-73
2022/07/07 06:41:04;;;;;;;1.10;1.10;;;;;;;;;;5031974;28;20188;-75
2022/07/07 06:43:30;;;;;;;1.53;1.43;;;;;;;;;;5050527;28;20572;-77
2022/07/07 06:45:56;;;;;;;8.03;1.70;;;;;;;;;;5042268;28;20538;-72
2022/07/07 06:48:22;;;;;;;1.73;1.27;;;;;;;;;;5030467;28;20486;-73
2022/07/07 06:50:49;;;;;;;1.80;1.37;;;;;;;;;;5033475;28;20181;-75
2022/07/07 06:53:15;;;;;;;1.30;1.27;;;;;;;;;;5028815;28;20483;-73
2022/07/07 06:55:41;;;;;;;9.43;2.83;;;;;;;;;;5033743;28;20465;-73
2022/07/07 06:58:08;;;;;;;2.57;1.50;;;;;;;;;;5030050;28;20722;-73
2022/07/07 07:00:34;;;;;;;1.40;1.20;;;;;;;;;;5033041;28;20470;-73
2022/07/07 07:03:00;;;;;;;2.30;1.27;;;;;;;;;;5033290;28;20439;-74
2022/07/07 07:05:26;;;;;;;1.53;1.30;;;;;;;;;;5033092;28;20462;-73
2022/07/07 07:07:52;;;;;;;2.17;1.30;;;;;;;;;;5030750;28;20189;-73
2022/07/07 07:10:18;;;;;;;4.67;1.70;;;;;;;;;;5033299;28;20420;-81
2022/07/07 07:12:44;;;;;;;3.13;1.60;;;;;;;;;;5032768;28;20478;-75
2022/07/07 07:15:10;;;;;;;8.70;1.70;;;;;;;;;;5038177;28;20763;-75
2022/07/07 07:17:37;;;;;;;6.13;1.73;;;;;;;;;;5043654;28;20418;-73
2022/07/07 07:20:04;;;;;;;4.73;1.70;;;;;;;;;;5053085;28;20898;-73
2022/07/07 07:22:35;;;;;;;2.73;1.50;;;;;;;;;;5038442;28;20434;-75
2022/07/07 07:25:01;;;;;;;8.37;1.40;;;;;;;;;;5022071;28;20431;-72
2022/07/07 07:27:27;;;;;;;6.90;1.97;;;;;;;;;;5032536;28;20403;-73
2022/07/07 07:29:53;;;;;;;6.23;1.93;;;;;;;;;;5032770;28;20191;-74
2022/07/07 07:32:18;;;;;;;1.63;1.00;;;;;;;;;;5032748;28;20467;-73
2022/07/07 07:34:44;;;;;;;3.63;1.47;;;;;;;;;;5032972;28;20439;-73
2022/07/07 07:37:10;;;;;;;1.43;1.33;;;;;;;;;;5031337;28;20419;-74
2022/07/07 07:39:36;;;;;;;1.60;1.50;;;;;;;;;;5032959;28;20469;-76
2022/07/07 07:42:02;;;;;;;6.83;1.93;;;;;;;;;;5032433;28;20426;-73
2022/07/07 07:45:29;;;;;;;4.70;1.60;;;;;;;;;;5032646;28;20439;-73
2022/07/07 07:47:24;;;;;;;10.80;1.70;;;;;;;;;;5027431;28;20427;-74
2022/07/07 07:49:50;;;;;;;7.53;1.03;;;;;;;;;;5032248;28;20435;-73
2022/07/07 07:52:16;;;;;;;0.97;0.97;;;;;;;;;;5032269;28;20490;-74
2022/07/07 07:54:42;;;;;;;7.93;1.47;;;;;;;;;;5032921;28;20419;-73
2022/07/07 07:57:07;;;;;;;5.60;1.30;;;;;;;;;;5032008;28;20424;-74
2022/07/07 07:59:34;;;;;;;2.57;2.00;;;;;;;;;;5032574;28;20475;-73
2022/07/07 08:02:00;;;;;;;10.73;5.20;;;;;;;;;;5031024;28;20469;-72
2022/07/07 08:04:26;;;;;;;3.60;1.35;;;;;;;;;;5031659;28;20438;-74
2022/07/07 08:06:51;;;;;;;13.57;1.85;;;;;;;;;;5029986;28;20409;-74
2022/07/07 08:09:17;;;;;;;4.57;2.10;;;;;;;;;;5035076;28;20184;-75
2022/07/07 08:11:43;;;;;;;5.03;4.70;;;;;;;;;;5036427;28;20430;-73
2022/07/07 08:14:09;;;;;;;3.27;2.90;;;;;;;;;;5036619;28;20423;-73
2022/07/07 08:16:36;;;;;;;8.63;1.93;;;;;;;;;;5036469;28;20895;-76
2022/07/07 08:19:02;;;;;;;6.80;2.73;;;;;;;;;;5036247;28;20638;-73
2022/07/07 08:21:28;;;;;;;1.23;1.23;;;;;;;;;;5036605;28;20527;-73
2022/07/07 08:23:54;;;;;;;2.30;1.83;;;;;;;;;;5034868;28;20762;-73
2022/07/07 08:26:20;;;;;;;2.38;1.30;;;;;;;;;;5034735;28;20504;-73
2022/07/07 08:28:46;;;;;;;2.60;1.40;;;;;;;;;;5036120;28;20184;-74
2022/07/07 08:31:12;;;;;;;5.90;2.60;;;;;;;;;;5036393;28;20536;-77
2022/07/07 08:33:38;;;;;;;6.40;1.50;;;;;;;;;;5036303;28;20246;-77
2022/07/07 08:36:04;;;;;;;1.50;1.40;;;;;;;;;;5034163;28;20443;-78
2022/07/07 08:38:30;;;;;;;2.83;1.53;;;;;;;;;;5036400;28;20181;-78
2022/07/07 08:40:56;;;;;;;3.10;1.97;;;;;;;;;;5035876;28;20493;-82
2022/07/07 08:43:22;;;;;;;2.80;2.00;;;;;;;;;;5035527;28;20427;-79
2022/07/07 08:45:48;;;;;;;9.90;2.10;;;;;;;;;;5035830;28;20824;-73
2022/07/07 08:48:14;;;;;;;7.47;2.73;;;;;;;;;;5034810;28;20430;-74
2022/07/07 08:50:41;;;;;;;2.70;2.50;;;;;;;;;;5036125;28;20572;-74
2022/07/07 08:53:12;;;;;;;0.93;0.90;;;;;;;;;;5035522;28;20487;-75
2022/07/07 08:55:41;;;;;;;2.83;1.23;;;;;;;;;;5016125;28;20450;-73
2022/07/07 08:58:07;;;;;;;1.13;1.13;;;;;;;;;;5030597;28;20427;-74
2022/07/07 09:00:32;;;;;;;9.80;1.40;;;;;;;;;;5035804;28;20773;-73
2022/07/07 09:03:03;;;;;;;13.93;1.90;;;;;;;;;;5035758;28;20426;-74
2022/07/07 09:05:33;;;;;;;4.83;1.60;;;;;;;;;;5035478;28;20849;-76
2022/07/07 09:07:59;;;;;;;2.00;1.00;;;;;;;;;;5035520;28;20423;-74
2022/07/07 09:10:32;;;;;;;3.50;1.13;;;;;;;;;;5035701;28;20480;-74
2022/07/07 09:12:58;;;;;;;1.70;1.33;;;;;;;;;;5033570;28;20561;-75
2022/07/07 09:15:24;;;;;;;6.67;2.40;;;;;;;;;;5035587;28;20443;-73
2022/07/07 09:17:50;;;;;;;1.43;1.20;;;;;;;;;;5033935;28;20435;-73
2022/07/07 09:20:16;;;;;;;0.87;0.77;;;;;;;;;;5034900;28;20963;-73
2022/07/07 09:22:50;;;;;;;6.07;5.70;;;;;;;;;;5034950;28;20431;-74
2022/07/07 09:25:17;;;;;;;6.60;1.90;;;;;;;;;;5035461;28;20500;-74
2022/07/07 09:28:00;;;;;;;0.90;0.90;;;;;;;;;;5034071;28;20426;-75
2022/07/07 09:30:25;;;;;;;1.00;1.00;;;;;;;;;;5034729;28;20549;-77
2022/07/07 09:32:52;;;;;;;1.13;1.03;;;;;;;;;;5035109;28;20911;-73
2022/07/07 09:38:13;;;;;;;1.50;1.47;;;;;;;;;;5033958;28;20415;-75
2022/07/07 09:38:13;;;;;;;1.03;1.00;;;;;;;;;;5034444;28;20435;-74
2022/07/07 09:40:49;;;;;;;1.17;1.07;;;;;;;;;;5030116;28;20986;-73
2022/07/07 09:43:15;;;;;;;1.90;1.00;;;;;;;;;;5046267;28;20430;-74
2022/07/07 09:45:41;;;;;;;1.23;1.13;;;;;;;;;;5015083;28;20428;-77
2022/07/07 09:48:10;;;;;;;0.63;0.63;;;;;;;;;;5029683;28;21155;-75
2022/07/07 09:50:36;;;;;;;0.80;0.77;;;;;;;;;;5032462;28;20500;-73
2022/07/07 09:53:09;;;;;;;0.83;0.83;;;;;;;;;;5033385;28;20979;-76
2022/07/07 09:55:35;;;;;;;3.53;1.60;;;;;;;;;;5034478;28;20419;-79
2022/07/07 09:58:00;;;;;;;5.23;1.23;;;;;;;;;;5033676;28;20427;-75
2022/07/07 10:00:27;;;;;;;0.70;0.70;;;;;;;;;;5034682;28;20431;-74
2022/07/07 10:02:54;;;;;;;1.00;1.00;;;;;;;;;;5034835;28;20554;-75
2022/07/07 10:05:20;;;;;;;3.00;1.37;;;;;;;;;;5034797;28;20492;-76
2022/07/07 10:07:50;;;;;;;2.10;1.10;;;;;;;;;;5032761;28;20439;-74
2022/07/07 10:10:19;;;;;;;1.70;1.00;;;;;;;;;;5034534;28;20427;-74
2022/07/07 10:12:45;;;;;;;1.13;1.13;;;;;;;;;;5033900;28;20581;-74
2022/07/07 10:15:12;;;;;;;1.10;1.10;;;;;;;;;;5034462;28;20412;-74
2022/07/07 10:17:39;;;;;;;1.50;1.30;;;;;;;;;;5033871;28;20434;-74
2022/07/07 10:20:06;;;;;;;1.00;1.00;;;;;;;;;;5034166;28;20412;-74
2022/07/07 10:22:32;;;;;;;1.97;1.13;;;;;;;;;;5034285;28;20469;-77
2022/07/07 10:25:00;;;;;;;2.77;1.13;;;;;;;;;;5034530;28;20419;-78
2022/07/07 10:27:27;;;;;;;0.77;0.77;;;;;;;;;;5033289;28;20489;-80
2022/07/07 10:29:54;;;;;;;3.53;1.27;;;;;;;;;;5034179;28;20415;-75
2022/07/07 10:32:20;;;;;;;1.27;1.17;;;;;;;;;;5033034;28;20466;-83
2022/07/07 10:34:54;;;;;;;3.33;1.10;;;;;;;;;;5034074;28;20971;-80
2022/07/07 10:37:22;;;;;;;0.70;0.70;;;;;;;;;;5032255;28;20184;-80
2022/07/07 10:39:49;;;;;;;4.47;1.10;;;;;;;;;;5032904;28;20506;-80
2022/07/07 10:42:17;;;;;;;1.23;1.13;;;;;;;;;;5033589;28;20846;-82
2022/07/07 10:44:49;;;;;;;1.10;1.00;;;;;;;;;;5033787;28;20810;-76
2022/07/07 10:47:18;;;;;;;1.60;1.50;;;;;;;;;;5033189;28;20540;-80
2022/07/07 10:49:45;;;;;;;1.30;1.20;;;;;;;;;;5033766;28;20423;-77
2022/07/07 10:52:12;;;;;;;2.23;1.07;;;;;;;;;;5033313;28;20490;-78
2022/07/07 10:54:42;;;;;;;3.90;1.13;;;;;;;;;;5033534;28;20518;-76
2022/07/07 10:57:08;;;;;;;4.70;0.80;;;;;;;;;;5032981;28;20785;-74
2022/07/07 10:59:53;;;;;;;0.90;0.90;;;;;;;;;;5031998;28;20427;-75
2022/07/07 11:02:39;;;;;;;3.80;0.97;;;;;;;;;;5032121;28;20432;-74
2022/07/07 11:05:15;;;;;;;4.13;1.30;;;;;;;;;;5033290;28;20919;-74
2022/07/07 11:07:42;;;;;;;1.40;1.30;;;;;;;;;;5033253;28;20501;-76
2022/07/07 11:10:12;;;;;;;1.27;1.20;;;;;;;;;;5033183;28;20423;-74
2022/07/07 11:12:38;;;;;;;2.60;1.30;;;;;;;;;;5032921;28;20839;-75
2022/07/07 11:15:16;;;;;;;1.30;1.20;;;;;;;;;;5032988;28;20419;-74
2022/07/07 11:17:42;;;;;;;1.17;1.13;;;;;;;;;;5032971;28;20415;-76
2022/07/07 11:20:08;;;;;;;4.63;1.07;;;;;;;;;;5031967;28;20424;-78
2022/07/07 11:22:47;;;;;;;1.30;0.83;;;;;;;;;;5033246;28;20230;-76
2022/07/07 11:25:14;;;;;;;0.80;0.80;;;;;;;;;;5033033;28;20485;-75
2022/07/07 11:27:40;;;;;;;3.90;1.50;;;;;;;;;;5032049;28;20435;-77
2022/07/07 11:30:06;;;;;;;6.63;1.23;;;;;;;;;;5033004;28;20404;-78
2022/07/07 11:32:36;;;;;;;1.30;1.30;;;;;;;;;;5032993;28;20570;-75
2022/07/07 11:35:10;;;;;;;1.50;1.40;;;;;;;;;;5032927;28;20423;-74
2022/07/07 11:37:39;;;;;;;0.80;0.80;;;;;;;;;;5032795;28;20493;-77
2022/07/07 11:40:06;;;;;;;2.13;1.37;;;;;;;;;;5032361;28;20437;-76
2022/07/07 11:42:37;;;;;;;5.30;1.70;;;;;;;;;;5032287;28;20431;-77
2022/07/07 11:45:03;;;;;;;1.20;1.03;;;;;;;;;;5034214;28;20906;-78
2022/07/07 11:47:36;;;;;;;1.30;1.20;;;;;;;;;;5045950;28;20426;-76
2022/07/07 11:50:02;;;;;;;1.70;1.60;;;;;;;;;;5035834;28;20440;-75
2022/07/07 11:52:28;;;;;;;4.60;1.30;;;;;;;;;;5033076;28;20487;-75
2022/07/07 11:54:55;;;;;;;4.20;1.87;;;;;;;;;;5032432;28;20977;-76
2022/07/07 11:57:31;;;;;;;1.20;1.10;;;;;;;;;;5031448;28;20451;-77
2022/07/07 12:00:13;;;;;;;4.10;1.60;;;;;;;;;;5029916;28;20289;-78
2022/07/07 12:02:39;;;;;;;3.50;1.53;;;;;;;;;;5031995;28;20774;-75
2022/07/07 12:05:06;;;;;;;1.50;1.00;;;;;;;;;;5032584;28;20416;-76
2022/07/07 12:07:32;;;;;;;2.80;0.80;;;;;;;;;;5031790;28;20949;-76
2022/07/07 12:09:58;;;;;;;2.20;1.53;;;;;;;;;;5033153;28;20781;-79
2022/07/07 12:12:24;;;;;;;4.10;1.60;;;;;;;;;;5042837;28;20475;-80
2022/07/07 12:14:50;;;;;;;0.93;0.93;;;;;;;;;;5032280;28;20480;-78
2022/07/07 12:17:35;;;;;;;1.27;1.20;;;;;;;;;;5031457;28;20468;-77
2022/07/07 12:20:02;;;;;;;1.37;0.90;;;;;;;;;;5023567;28;20423;-75
2022/07/07 12:22:34;;;;;;;3.70;1.37;;;;;;;;;;5020100;28;20446;-78
2022/07/07 12:25:04;;;;;;;2.20;1.13;;;;;;;;;;5030934;28;20494;-75
2022/07/07 12:27:30;;;;;;;0.70;0.70;;;;;;;;;;5031502;28;20782;-78
2022/07/07 12:30:00;;;;;;;5.80;1.30;;;;;;;;;;5032203;28;20771;-79
2022/07/07 12:32:27;;;;;;;2.90;1.60;;;;;;;;;;5032005;28;20555;-75
2022/07/07 12:34:53;;;;;;;2.23;0.90;;;;;;;;;;5030620;28;20454;-80
2022/07/07 12:37:19;;;;;;;1.70;1.00;;;;;;;;;;5031636;28;20797;-79
2022/07/07 12:39:49;;;;;;;0.87;0.87;;;;;;;;;;5030199;28;20431;-79
2022/07/07 12:42:24;;;;;;;1.30;1.20;;;;;;;;;;5031345;28;20463;-79
2022/07/07 12:44:50;;;;;;;3.90;0.90;;;;;;;;;;5030206;28;20422;-79
2022/07/07 12:47:16;;;;;;;2.00;1.10;;;;;;;;;;5031791;28;20419;-77
2022/07/07 12:49:52;;;;;;;0.87;0.87;;;;;;;;;;5031103;28;20860;-76
2022/07/07 12:52:18;;;;;;;3.70;1.07;;;;;;;;;;5031467;28;21024;-75
2022/07/07 12:54:44;;;;;;;1.10;1.00;;;;;;;;;;5032039;28;20447;-77
2022/07/07 12:57:10;;;;;;;4.23;1.00;;;;;;;;;;5035214;28;20766;-78
2022/07/07 12:59:40;;;;;;;1.30;1.20;;;;;;;;;;5035378;28;21162;-79
2022/07/07 13:02:07;;;;;;;1.90;1.37;;;;;;;;;;5035055;28;20423;-76
2022/07/07 13:04:33;;;;;;;1.90;1.80;;;;;;;;;;5035174;28;20789;-75
2022/07/07 13:06:59;;;;;;;2.50;1.30;;;;;;;;;;5035213;28;20419;-75
2022/07/07 13:09:25;;;;;;;2.37;1.23;;;;;;;;;;5035553;28;20471;-75
2022/07/07 13:11:51;;;;;;;2.43;0.97;;;;;;;;;;5034412;28;20423;-75
2022/07/07 13:14:18;;;;;;;0.97;0.97;;;;;;;;;;5035563;28;20427;-75
2022/07/07 13:16:44;;;;;;;2.53;0.93;;;;;;;;;;5033744;28;20915;-76
2022/07/07 13:19:09;;;;;;;1.20;1.10;;;;;;;;;;5033676;28;20439;-76
2022/07/07 13:21:35;;;;;;;2.10;0.90;;;;;;;;;;5035504;28;20418;-74
2022/07/07 13:24:01;;;;;;;2.50;2.07;;;;;;;;;;5035185;28;20435;-75
2022/07/07 13:26:27;;;;;;;4.67;3.73;;;;;;;;;;5034734;28;20427;-76
2022/07/07 13:28:53;;;;;;;0.87;0.87;;;;;;;;;;5034944;28;20466;-79
2022/07/07 13:31:19;;;;;;;2.13;0.90;;;;;;;;;;5034960;28;20447;-73
2022/07/07 13:33:45;;;;;;;1.60;0.90;;;;;;;;;;5035047;28;20478;-79
2022/07/07 13:36:11;;;;;;;0.97;0.97;;;;;;;;;;5034998;28;20514;-76
2022/07/07 13:38:37;;;;;;;0.97;0.80;;;;;;;;;;5035197;28;20416;-74
2022/07/07 13:41:03;;;;;;;5.40;1.10;;;;;;;;;;5034707;28;20438;-74
2022/07/07 13:43:30;;;;;;;7.33;0.90;;;;;;;;;;5034054;28;20522;-75
2022/07/07 13:45:56;;;;;;;1.10;1.10;;;;;;;;;;5033861;28;20430;-76
2022/07/07 13:48:22;;;;;;;1.30;1.03;;;;;;;;;;5034952;28;20415;-80
2022/07/07 13:50:49;;;;;;;1.20;1.03;;;;;;;;;;5034830;28;20498;-77
2022/07/07 13:53:15;;;;;;;1.10;1.00;;;;;;;;;;5032790;28;20487;-78
2022/07/07 13:55:41;;;;;;;1.00;1.00;;;;;;;;;;5033181;28;20577;-80
2022/07/07 13:58:07;;;;;;;5.47;0.90;;;;;;;;;;5034556;28;20502;-76
2022/07/07 14:00:33;;;;;;;2.10;1.00;;;;;;;;;;5034419;28;20429;-79
2022/07/07 14:02:59;;;;;;;1.03;1.03;;;;;;;;;;5035520;28;20432;-82
2022/07/07 14:05:26;;;;;;;4.33;1.30;;;;;;;;;;5033231;28;20438;-76
2022/07/07 14:07:52;;;;;;;0.70;0.70;;;;;;;;;;5034542;28;20435;-75
2022/07/07 14:10:19;;;;;;;1.13;0.80;;;;;;;;;;5034120;28;20546;-74
2022/07/07 14:12:45;;;;;;;0.60;0.60;;;;;;;;;;5033889;28;20577;-76
2022/07/07 14:15:11;;;;;;;2.73;0.83;;;;;;;;;;5034092;28;20526;-79
2022/07/07 14:17:37;;;;;;;23.07;1.13;;;;;;;;;;5034179;28;20416;-81
2022/07/07 14:20:04;;;;;;;1.50;0.73;;;;;;;;;;5032806;28;20427;-80
2022/07/07 14:22:30;;;;;;;10.93;1.10;;;;;;;;;;5033148;28;20831;-77
2022/07/07 14:24:56;;;;;;;1.80;0.60;;;;;;;;;;5033929;28;20907;-74
2022/07/07 14:27:22;;;;;;;0.93;0.93;;;;;;;;;;5033539;28;20432;-79
2022/07/07 14:29:48;;;;;;;2.33;0.90;;;;;;;;;;5033683;28;20438;-77
2022/07/07 14:32:14;;;;;;;1.10;1.10;;;;;;;;;;5034073;28;20482;-78
2022/07/07 14:34:40;;;;;;;1.33;1.17;;;;;;;;;;5032641;28;20435;-74
2022/07/07 14:37:06;;;;;;;0.70;0.70;;;;;;;;;;5033635;28;21034;-75
2022/07/07 14:39:32;;;;;;;0.80;0.80;;;;;;;;;;5032806;28;20435;-76
2022/07/07 14:41:58;;;;;;;0.83;0.83;;;;;;;;;;5033514;28;20423;-74
2022/07/07 14:44:24;;;;;;;0.60;0.60;;;;;;;;;;5046874;28;20445;-76